Time;durP1;ratioP1;P1;durP2;ratioP2;P2;SDS_P1;SDS_P2;PMS_P1;PMS_P2;Temp;Humidity;BMP_temperature;BMP_pressure;BME280_temperature;BME280_humidity;BME280_pressure;Samples;Min_cycle;Max_cycle;Signal;HPM_P1;HPM_P2
2023/01/01 00:00:40;;;;;;;21.97;13.23;;;;;;;;;;6241136;23;20178;-75
2023/01/01 00:03:05;;;;;;;26.60;12.20;;;;;;;;;;6241218;23;20720;-75
2023/01/01 00:05:30;;;;;;;23.03;10.90;;;;;;;;;;6241821;22;20139;-75
2023/01/01 00:07:56;;;;;;;18.63;8.60;;;;;;;;;;6240054;23;20205;-75
2023/01/01 00:10:27;;;;;;;16.63;8.43;;;;;;;;;;6240649;23;20582;-75
2023/01/01 00:12:53;;;;;;;18.60;9.00;;;;;;;;;;6241528;23;20218;-74
2023/01/01 00:15:18;;;;;;;22.63;8.80;;;;;;;;;;6241771;23;20786;-75
2023/01/01 00:17:43;;;;;;;17.50;9.20;;;;;;;;;;6241848;22;20167;-75
2023/01/01 00:20:09;;;;;;;14.03;7.60;;;;;;;;;;6241577;23;20564;-75
2023/01/01 00:22:34;;;;;;;15.53;7.07;;;;;;;;;;6240884;22;20186;-75
2023/01/01 00:24:59;;;;;;;16.27;8.57;;;;;;;;;;6239974;23;20528;-75
2023/01/01 00:27:25;;;;;;;14.70;7.10;;;;;;;;;;6235709;22;20229;-76
2023/01/01 00:29:50;;;;;;;17.90;7.90;;;;;;;;;;6238702;23;20178;-76
2023/01/01 00:32:15;;;;;;;16.17;7.10;;;;;;;;;;6241028;23;20222;-77
2023/01/01 00:34:40;;;;;;;14.93;9.03;;;;;;;;;;6241787;22;20147;-77
2023/01/01 00:37:06;;;;;;;22.57;10.57;;;;;;;;;;6241255;22;20234;-76
2023/01/01 00:39:31;;;;;;;23.63;12.90;;;;;;;;;;6238859;23;20143;-76
2023/01/01 00:41:56;;;;;;;17.70;11.67;;;;;;;;;;6241890;23;20502;-76
2023/01/01 00:44:22;;;;;;;22.80;12.93;;;;;;;;;;6238487;23;20143;-77
2023/01/01 00:46:47;;;;;;;19.33;11.97;;;;;;;;;;6242398;22;20195;-76
2023/01/01 00:49:12;;;;;;;19.83;12.03;;;;;;;;;;6234099;23;20158;-75
2023/01/01 00:51:37;;;;;;;17.47;11.53;;;;;;;;;;6242076;23;20217;-75
2023/01/01 00:54:06;;;;;;;22.63;13.40;;;;;;;;;;6239636;23;20151;-75
2023/01/01 00:56:31;;;;;;;22.47;12.03;;;;;;;;;;6241273;22;20174;-75
2023/01/01 00:58:56;;;;;;;23.13;12.70;;;;;;;;;;6242019;23;20374;-76
2023/01/01 01:01:22;;;;;;;20.50;11.03;;;;;;;;;;6242960;23;20563;-75
2023/01/01 01:03:47;;;;;;;25.77;14.33;;;;;;;;;;6242494;23;20136;-75
2023/01/01 01:06:14;;;;;;;23.87;13.30;;;;;;;;;;6243078;22;20166;-75
2023/01/01 01:08:40;;;;;;;21.57;12.43;;;;;;;;;;6243590;22;20161;-75
2023/01/01 01:11:32;;;;;;;23.23;12.60;;;;;;;;;;6243812;22;20739;-76
2023/01/01 01:13:57;;;;;;;17.63;11.63;;;;;;;;;;6240534;23;20377;-75
2023/01/01 01:16:24;;;;;;;24.93;14.50;;;;;;;;;;6244094;22;20416;-75
2023/01/01 01:18:50;;;;;;;24.70;13.27;;;;;;;;;;6241581;22;20634;-76
2023/01/01 01:21:17;;;;;;;24.13;15.10;;;;;;;;;;6240605;22;20417;-76
2023/01/01 01:23:42;;;;;;;23.40;14.30;;;;;;;;;;6242886;22;20696;-76
2023/01/01 01:26:19;;;;;;;27.90;13.47;;;;;;;;;;6242982;22;20405;-75
2023/01/01 01:28:45;;;;;;;27.23;16.00;;;;;;;;;;6238577;22;20222;-76
2023/01/01 01:31:10;;;;;;;24.57;17.50;;;;;;;;;;6243347;22;20416;-75
2023/01/01 01:33:36;;;;;;;31.00;18.10;;;;;;;;;;6243481;22;20253;-76
2023/01/01 01:36:02;;;;;;;30.67;18.27;;;;;;;;;;6242825;22;20499;-75
2023/01/01 01:38:27;;;;;;;26.10;19.47;;;;;;;;;;6241797;22;20189;-76
2023/01/01 01:40:52;;;;;;;33.37;20.23;;;;;;;;;;6240111;23;20410;-76
2023/01/01 01:43:23;;;;;;;29.00;20.23;;;;;;;;;;6239465;23;20151;-75
2023/01/01 01:45:50;;;;;;;38.00;22.03;;;;;;;;;;6239065;22;20570;-75
2023/01/01 01:48:15;;;;;;;27.80;21.30;;;;;;;;;;6242431;22;20363;-76
2023/01/01 01:50:42;;;;;;;29.43;20.80;;;;;;;;;;6240741;22;20396;-75
2023/01/01 01:53:10;;;;;;;36.13;19.23;;;;;;;;;;6241657;22;20150;-76
2023/01/01 01:55:37;;;;;;;36.50;22.00;;;;;;;;;;6240714;22;20370;-76
2023/01/01 01:58:03;;;;;;;25.73;18.63;;;;;;;;;;6240398;22;20366;-75
2023/01/01 02:00:28;;;;;;;33.90;19.67;;;;;;;;;;6242452;22;20410;-76
2023/01/01 02:02:59;;;;;;;29.93;19.17;;;;;;;;;;6241674;22;20139;-76
2023/01/01 02:05:25;;;;;;;26.70;20.60;;;;;;;;;;6241910;22;20586;-76
2023/01/01 02:07:50;;;;;;;27.37;19.97;;;;;;;;;;6241860;22;20461;-76
2023/01/01 02:10:16;;;;;;;31.20;22.30;;;;;;;;;;6242655;22;20140;-76
2023/01/01 02:12:41;;;;;;;32.10;22.17;;;;;;;;;;6242433;23;20378;-76
2023/01/01 02:15:07;;;;;;;31.03;22.63;;;;;;;;;;6242597;22;20147;-76
2023/01/01 02:17:34;;;;;;;33.67;23.50;;;;;;;;;;6241712;22;20163;-76
2023/01/01 02:19:59;;;;;;;32.30;22.37;;;;;;;;;;6240848;22;20418;-76
2023/01/01 02:22:28;;;;;;;32.53;24.33;;;;;;;;;;6239215;23;20370;-77
2023/01/01 02:24:53;;;;;;;36.70;23.43;;;;;;;;;;6245072;23;20147;-77
2023/01/01 02:27:37;;;;;;;33.70;24.77;;;;;;;;;;6245231;22;20416;-76
2023/01/01 02:30:04;;;;;;;39.30;25.90;;;;;;;;;;6246796;23;20225;-76
2023/01/01 02:32:42;;;;;;;32.97;24.50;;;;;;;;;;6245900;22;20377;-76
2023/01/01 02:37:58;;;;;;;34.63;25.23;;;;;;;;;;6241429;23;20342;-77
2023/01/01 02:40:23;;;;;;;35.17;23.20;;;;;;;;;;6244995;22;20496;-76
2023/01/01 02:42:49;;;;;;;34.83;25.20;;;;;;;;;;6243038;22;20393;-76
2023/01/01 02:45:15;;;;;;;40.30;26.13;;;;;;;;;;6244040;22;20139;-76
2023/01/01 02:47:40;;;;;;;35.57;25.27;;;;;;;;;;6244049;22;20703;-76
2023/01/01 02:50:13;;;;;;;39.13;24.33;;;;;;;;;;6242193;23;20148;-76
2023/01/01 02:52:47;;;;;;;31.23;22.97;;;;;;;;;;6242941;22;20216;-76
2023/01/01 02:55:22;;;;;;;36.30;23.60;;;;;;;;;;6243196;23;20377;-76
2023/01/01 03:00:17;;;;;;;32.33;23.00;;;;;;;;;;6242706;22;20381;-76
2023/01/01 03:00:47;;;;;;;41.10;23.33;;;;;;;;;;6242083;23;20421;-76
2023/01/01 03:03:17;;;;;;;31.63;21.13;;;;;;;;;;6242437;22;20401;-76
2023/01/01 03:08:45;;;;;;;28.93;19.57;;;;;;;;;;6239536;23;20852;-76
2023/01/01 03:11:12;;;;;;;25.70;18.97;;;;;;;;;;6241056;22;20346;-76
2023/01/01 03:13:51;;;;;;;25.03;16.77;;;;;;;;;;6240056;22;20386;-76
2023/01/01 03:16:52;;;;;;;27.43;17.67;;;;;;;;;;6241369;22;20848;-76
2023/01/01 03:19:19;;;;;;;27.50;18.73;;;;;;;;;;6178337;23;20438;-76
2023/01/01 03:22:02;;;;;;;26.83;15.53;;;;;;;;;;6229130;23;20430;-76
2023/01/01 03:24:33;;;;;;;27.50;15.57;;;;;;;;;;6242656;23;20424;-76
2023/01/01 03:27:01;;;;;;;23.10;15.43;;;;;;;;;;6239702;22;20438;-76
2023/01/01 03:29:28;;;;;;;19.43;14.60;;;;;;;;;;6239339;23;20393;-76
2023/01/01 03:31:55;;;;;;;29.07;14.10;;;;;;;;;;6239593;22;20522;-76
2023/01/01 03:34:23;;;;;;;24.40;13.50;;;;;;;;;;6239439;22;20367;-76
2023/01/01 03:36:51;;;;;;;22.27;12.73;;;;;;;;;;6238898;22;20389;-76
2023/01/01 03:39:18;;;;;;;19.53;12.67;;;;;;;;;;6240427;22;20394;-76
2023/01/01 03:41:47;;;;;;;27.30;12.03;;;;;;;;;;6237855;23;20743;-76
2023/01/01 03:44:12;;;;;;;16.17;11.40;;;;;;;;;;6240535;23;20394;-76
2023/01/01 03:46:37;;;;;;;19.80;11.50;;;;;;;;;;6239743;22;20393;-76
2023/01/01 03:49:04;;;;;;;25.40;10.50;;;;;;;;;;6237452;22;20155;-76
2023/01/01 03:51:38;;;;;;;20.37;11.10;;;;;;;;;;6237469;23;20163;-77
2023/01/01 03:54:07;;;;;;;15.70;11.10;;;;;;;;;;6238555;23;20365;-77
2023/01/01 03:56:32;;;;;;;24.13;10.93;;;;;;;;;;6239945;22;20386;-77
2023/01/01 03:59:01;;;;;;;20.83;10.83;;;;;;;;;;6239424;23;20447;-76
2023/01/01 04:01:30;;;;;;;24.37;11.33;;;;;;;;;;6239977;22;20608;-77
2023/01/01 04:03:56;;;;;;;24.70;10.97;;;;;;;;;;6238929;22;20366;-77
2023/01/01 04:06:21;;;;;;;21.53;9.50;;;;;;;;;;6241346;22;20443;-77
2023/01/01 04:08:48;;;;;;;18.90;8.80;;;;;;;;;;6239852;23;20374;-76
2023/01/01 04:14:00;;;;;;;20.37;9.27;;;;;;;;;;6241145;23;20458;-76
2023/01/01 04:16:26;;;;;;;13.00;9.23;;;;;;;;;;6242357;22;20891;-76
2023/01/01 04:18:51;;;;;;;16.13;8.90;;;;;;;;;;6244551;23;20147;-77
2023/01/01 04:21:16;;;;;;;18.33;11.10;;;;;;;;;;6244579;23;20234;-76
2023/01/01 04:23:42;;;;;;;22.30;11.73;;;;;;;;;;6245736;23;20582;-76
2023/01/01 04:26:11;;;;;;;24.70;11.73;;;;;;;;;;6242942;22;20182;-76
2023/01/01 04:28:36;;;;;;;18.30;12.00;;;;;;;;;;6243133;22;20152;-76
2023/01/01 04:31:01;;;;;;;24.00;12.50;;;;;;;;;;6240384;23;20367;-76
2023/01/01 04:33:27;;;;;;;24.00;12.20;;;;;;;;;;6238532;23;20174;-76
2023/01/01 04:35:52;;;;;;;19.57;12.07;;;;;;;;;;6234934;22;20224;-76
2023/01/01 04:38:17;;;;;;;16.57;10.97;;;;;;;;;;6239622;23;20146;-76
2023/01/01 04:40:42;;;;;;;17.70;9.17;;;;;;;;;;6238336;23;20170;-76
2023/01/01 04:43:08;;;;;;;16.80;8.43;;;;;;;;;;6239863;23;20142;-75
2023/01/01 04:45:33;;;;;;;16.13;7.97;;;;;;;;;;6238484;22;20155;-77
2023/01/01 04:48:02;;;;;;;9.57;6.43;;;;;;;;;;6237786;23;20147;-76
2023/01/01 04:50:28;;;;;;;11.37;5.77;;;;;;;;;;6238849;23;20541;-76
2023/01/01 04:52:53;;;;;;;14.87;5.87;;;;;;;;;;6240041;23;20366;-76
2023/01/01 04:55:19;;;;;;;12.80;5.20;;;;;;;;;;6239768;23;20143;-76
2023/01/01 04:57:44;;;;;;;14.37;5.60;;;;;;;;;;6237572;22;20202;-76
2023/01/01 05:00:10;;;;;;;11.67;5.40;;;;;;;;;;6239104;23;20413;-75
2023/01/01 05:02:35;;;;;;;12.17;4.53;;;;;;;;;;6239678;22;20537;-76
2023/01/01 05:05:00;;;;;;;12.33;5.63;;;;;;;;;;6239436;23;20586;-76
2023/01/01 05:07:25;;;;;;;15.83;4.57;;;;;;;;;;6236389;22;20559;-76
2023/01/01 05:09:51;;;;;;;10.17;4.50;;;;;;;;;;6240811;23;20197;-76
2023/01/01 05:12:16;;;;;;;16.57;4.80;;;;;;;;;;6239725;23;20143;-75
2023/01/01 05:14:41;;;;;;;18.67;5.17;;;;;;;;;;6239094;23;20253;-76
2023/01/01 05:17:07;;;;;;;7.60;4.10;;;;;;;;;;6241352;22;20610;-76
2023/01/01 05:19:32;;;;;;;11.50;5.33;;;;;;;;;;6241160;23;20290;-76
2023/01/01 05:21:57;;;;;;;14.30;5.07;;;;;;;;;;6240873;22;20167;-76
2023/01/01 05:24:22;;;;;;;12.23;5.17;;;;;;;;;;6241358;22;20511;-76
2023/01/01 05:26:48;;;;;;;9.60;4.20;;;;;;;;;;6240806;22;20175;-76
2023/01/01 05:29:13;;;;;;;13.20;4.67;;;;;;;;;;6239142;22;20147;-75
2023/01/01 05:31:38;;;;;;;17.00;5.47;;;;;;;;;;6240349;22;20171;-75
2023/01/01 05:34:04;;;;;;;12.50;5.27;;;;;;;;;;6240624;22;20150;-76
2023/01/01 05:36:31;;;;;;;15.03;4.87;;;;;;;;;;6240354;22;20645;-76
2023/01/01 05:38:56;;;;;;;12.47;4.43;;;;;;;;;;6240458;22;20617;-76
2023/01/01 05:41:22;;;;;;;12.77;4.70;;;;;;;;;;6240006;22;20414;-74
2023/01/01 05:43:48;;;;;;;10.27;4.40;;;;;;;;;;6240548;22;20150;-75
2023/01/01 05:46:14;;;;;;;10.87;4.43;;;;;;;;;;6242941;22;20242;-75
2023/01/01 05:48:40;;;;;;;12.80;3.87;;;;;;;;;;6242359;22;20150;-75
2023/01/01 05:51:08;;;;;;;12.87;4.50;;;;;;;;;;6242999;22;20370;-74
2023/01/01 05:53:33;;;;;;;13.23;4.47;;;;;;;;;;6242546;23;20150;-76
2023/01/01 05:55:59;;;;;;;11.80;4.00;;;;;;;;;;6242421;22;20390;-75
2023/01/01 05:58:25;;;;;;;12.17;3.97;;;;;;;;;;6242648;22;20805;-75
2023/01/01 06:00:50;;;;;;;8.27;3.90;;;;;;;;;;6241545;22;20568;-76
2023/01/01 06:03:15;;;;;;;9.50;3.13;;;;;;;;;;6240566;22;20142;-76
2023/01/01 06:05:41;;;;;;;12.90;4.00;;;;;;;;;;6238893;22;20159;-75
2023/01/01 06:08:06;;;;;;;8.10;3.33;;;;;;;;;;6242021;22;20140;-75
2023/01/01 06:10:32;;;;;;;11.90;3.70;;;;;;;;;;6245770;23;20606;-75
2023/01/01 06:12:57;;;;;;;9.37;3.00;;;;;;;;;;6241330;22;20146;-75
2023/01/01 06:15:23;;;;;;;5.40;2.60;;;;;;;;;;6241456;22;20610;-73
2023/01/01 06:17:48;;;;;;;6.30;3.70;;;;;;;;;;6239034;22;20404;-74
2023/01/01 06:20:14;;;;;;;7.87;3.07;;;;;;;;;;6240150;23;20220;-75
2023/01/01 06:22:39;;;;;;;7.73;3.00;;;;;;;;;;6239989;23;20634;-74
2023/01/01 06:25:04;;;;;;;8.67;3.40;;;;;;;;;;6239543;23;20146;-75
2023/01/01 06:27:30;;;;;;;11.90;2.90;;;;;;;;;;6238947;22;20689;-74
2023/01/01 06:29:56;;;;;;;7.70;3.00;;;;;;;;;;6239533;23;20147;-74
2023/01/01 06:32:21;;;;;;;6.37;2.90;;;;;;;;;;6241353;22;20148;-74
2023/01/01 06:34:47;;;;;;;8.23;3.43;;;;;;;;;;6240507;23;20366;-75
2023/01/01 06:37:12;;;;;;;9.20;2.70;;;;;;;;;;6239318;22;20190;-74
2023/01/01 06:39:37;;;;;;;9.20;3.13;;;;;;;;;;6239385;23;20143;-74
2023/01/01 06:42:03;;;;;;;7.47;2.30;;;;;;;;;;6239809;23;20228;-74
2023/01/01 06:44:28;;;;;;;6.10;2.47;;;;;;;;;;6236607;23;20608;-74
2023/01/01 06:46:53;;;;;;;5.93;1.97;;;;;;;;;;6238749;22;20553;-75
2023/01/01 06:49:18;;;;;;;6.23;2.10;;;;;;;;;;6239589;23;20143;-75
2023/01/01 06:51:44;;;;;;;8.27;2.13;;;;;;;;;;6239898;23;20490;-75
2023/01/01 06:54:09;;;;;;;10.37;2.33;;;;;;;;;;6240042;22;20146;-74
2023/01/01 06:56:35;;;;;;;5.33;2.00;;;;;;;;;;6237468;22;20167;-75
2023/01/01 06:59:00;;;;;;;4.73;1.80;;;;;;;;;;6238995;22;20340;-75
2023/01/01 07:01:27;;;;;;;6.10;1.60;;;;;;;;;;6237568;23;20190;-76
2023/01/01 07:03:57;;;;;;;9.23;1.87;;;;;;;;;;6240151;22;20154;-75
2023/01/01 07:06:23;;;;;;;5.60;1.87;;;;;;;;;;6240865;22;20406;-76
2023/01/01 07:08:48;;;;;;;3.77;1.43;;;;;;;;;;6238730;22;20397;-76
2023/01/01 07:11:13;;;;;;;6.07;1.67;;;;;;;;;;6240926;22;20151;-75
2023/01/01 07:13:38;;;;;;;5.20;1.87;;;;;;;;;;6239282;23;20221;-76
2023/01/01 07:16:05;;;;;;;11.90;2.97;;;;;;;;;;6240736;22;20163;-75
2023/01/01 07:18:31;;;;;;;9.80;1.73;;;;;;;;;;6238820;22;20149;-75
2023/01/01 07:20:59;;;;;;;7.10;2.00;;;;;;;;;;6238699;22;20924;-75
2023/01/01 07:23:26;;;;;;;5.33;1.37;;;;;;;;;;6238401;22;20144;-76
2023/01/01 07:25:52;;;;;;;8.43;1.30;;;;;;;;;;6241711;22;20382;-76
2023/01/01 07:28:17;;;;;;;7.20;2.23;;;;;;;;;;6238694;22;20743;-76
2023/01/01 07:30:42;;;;;;;8.67;1.90;;;;;;;;;;6242225;22;20366;-75
2023/01/01 07:33:11;;;;;;;6.47;2.07;;;;;;;;;;6241890;23;20147;-76
2023/01/01 07:35:36;;;;;;;8.27;2.30;;;;;;;;;;6241946;22;20147;-76
2023/01/01 07:38:02;;;;;;;7.57;1.83;;;;;;;;;;6241316;22;20450;-75
2023/01/01 07:40:27;;;;;;;4.87;1.60;;;;;;;;;;6241196;23;20178;-75
2023/01/01 07:42:52;;;;;;;9.07;1.93;;;;;;;;;;6240980;23;20226;-76
2023/01/01 07:45:18;;;;;;;9.50;2.27;;;;;;;;;;6241419;22;20468;-76
2023/01/01 07:47:46;;;;;;;8.57;2.60;;;;;;;;;;6233865;22;20195;-71
2023/01/01 07:50:15;;;;;;;8.93;2.10;;;;;;;;;;6239227;23;20147;-71
2023/01/01 07:52:40;;;;;;;10.53;2.60;;;;;;;;;;6235489;23;20759;-72
2023/01/01 07:55:07;;;;;;;12.70;2.00;;;;;;;;;;6213065;23;20413;-72
2023/01/01 07:57:32;;;;;;;8.77;2.37;;;;;;;;;;6238633;22;20175;-72
2023/01/01 07:59:57;;;;;;;11.60;3.13;;;;;;;;;;6238934;23;20705;-72
2023/01/01 08:02:22;;;;;;;10.40;2.10;;;;;;;;;;6238140;23;20147;-71
2023/01/01 08:04:48;;;;;;;9.73;2.80;;;;;;;;;;6237223;23;20143;-71
2023/01/01 08:07:13;;;;;;;9.93;2.30;;;;;;;;;;6238474;22;20147;-72
2023/01/01 08:09:38;;;;;;;9.00;2.60;;;;;;;;;;6239145;23;20150;-71
2023/01/01 08:12:03;;;;;;;12.23;2.73;;;;;;;;;;6236780;23;20158;-72
2023/01/01 08:14:29;;;;;;;10.93;2.47;;;;;;;;;;6237199;23;20232;-71
2023/01/01 08:16:54;;;;;;;11.33;2.57;;;;;;;;;;6239999;22;20586;-72
2023/01/01 08:19:19;;;;;;;13.47;3.03;;;;;;;;;;6236969;22;20673;-72
2023/01/01 08:21:45;;;;;;;15.50;2.97;;;;;;;;;;6238429;22;20177;-71
2023/01/01 08:24:10;;;;;;;19.00;3.10;;;;;;;;;;6239838;23;20143;-71
2023/01/01 08:26:35;;;;;;;11.60;2.63;;;;;;;;;;6238201;23;20213;-71
2023/01/01 08:29:02;;;;;;;13.27;2.70;;;;;;;;;;6237533;22;20171;-72
2023/01/01 08:31:27;;;;;;;20.70;3.60;;;;;;;;;;6238975;22;20785;-72
2023/01/01 08:33:53;;;;;;;16.27;3.33;;;;;;;;;;6237857;23;20374;-72
2023/01/01 08:36:19;;;;;;;11.60;2.80;;;;;;;;;;6239386;23;20174;-72
2023/01/01 08:38:44;;;;;;;11.90;2.60;;;;;;;;;;6237250;22;20564;-71
2023/01/01 08:41:10;;;;;;;11.53;2.80;;;;;;;;;;6236498;23;20452;-72
2023/01/01 08:43:35;;;;;;;9.97;2.87;;;;;;;;;;6237365;23;20585;-71
2023/01/01 08:46:00;;;;;;;16.50;3.50;;;;;;;;;;6238501;23;20177;-71
2023/01/01 08:48:25;;;;;;;15.53;2.70;;;;;;;;;;6237892;22;20652;-71
2023/01/01 08:50:52;;;;;;;17.53;3.77;;;;;;;;;;6237361;23;20151;-71
2023/01/01 08:53:17;;;;;;;19.03;3.43;;;;;;;;;;6239968;22;20155;-71
2023/01/01 08:55:42;;;;;;;14.03;3.43;;;;;;;;;;6238226;23;20378;-71
2023/01/01 08:58:07;;;;;;;16.83;3.50;;;;;;;;;;6239023;22;20246;-71
2023/01/01 09:00:33;;;;;;;16.60;3.40;;;;;;;;;;6240258;22;20221;-71
2023/01/01 09:02:58;;;;;;;15.13;3.60;;;;;;;;;;6240900;22;20503;-71
2023/01/01 09:05:23;;;;;;;11.83;2.77;;;;;;;;;;6240959;23;20144;-71
2023/01/01 09:07:48;;;;;;;17.83;3.80;;;;;;;;;;6235876;22;20229;-71
2023/01/01 09:10:14;;;;;;;13.87;3.43;;;;;;;;;;6237390;23;20676;-71
2023/01/01 09:12:39;;;;;;;15.67;5.30;;;;;;;;;;6236385;22;20172;-71
2023/01/01 09:15:05;;;;;;;17.83;4.33;;;;;;;;;;6237110;23;20281;-71
2023/01/01 09:17:30;;;;;;;17.03;3.73;;;;;;;;;;6239030;22;20163;-71
2023/01/01 09:19:55;;;;;;;18.30;3.97;;;;;;;;;;6241182;22;20154;-70
2023/01/01 09:22:20;;;;;;;14.33;3.10;;;;;;;;;;6242470;23;20143;-71
2023/01/01 09:24:46;;;;;;;14.87;3.57;;;;;;;;;;6240985;23;20222;-70
2023/01/01 09:27:11;;;;;;;13.40;3.80;;;;;;;;;;6242639;22;20525;-71
2023/01/01 09:29:36;;;;;;;16.17;3.70;;;;;;;;;;6241545;23;20143;-71
2023/01/01 09:32:01;;;;;;;19.37;4.67;;;;;;;;;;6240550;23;20151;-71
2023/01/01 09:34:27;;;;;;;16.50;3.37;;;;;;;;;;6243112;22;20643;-71
2023/01/01 09:36:52;;;;;;;21.30;4.33;;;;;;;;;;6241266;23;20951;-71
2023/01/01 09:39:17;;;;;;;16.40;3.10;;;;;;;;;;6242002;22;20171;-71
2023/01/01 09:41:43;;;;;;;16.77;3.77;;;;;;;;;;6240961;23;20609;-71
2023/01/01 09:44:12;;;;;;;21.13;4.53;;;;;;;;;;6242188;23;20194;-71
2023/01/01 09:46:38;;;;;;;15.40;4.17;;;;;;;;;;6240531;23;20147;-71
2023/01/01 09:49:05;;;;;;;13.87;3.03;;;;;;;;;;6242334;22;20413;-71
2023/01/01 09:51:39;;;;;;;18.77;3.60;;;;;;;;;;6241968;22;20151;-72
2023/01/01 09:54:15;;;;;;;14.63;3.83;;;;;;;;;;6242451;23;20849;-72
2023/01/01 09:56:43;;;;;;;20.23;3.80;;;;;;;;;;6241912;22;20449;-72
2023/01/01 09:59:11;;;;;;;17.67;4.27;;;;;;;;;;6240211;22;20430;-71
2023/01/01 10:01:44;;;;;;;25.60;4.00;;;;;;;;;;6239946;23;20421;-71
2023/01/01 10:04:33;;;;;;;18.67;4.73;;;;;;;;;;6241055;23;20370;-72
2023/01/01 10:06:58;;;;;;;17.00;4.10;;;;;;;;;;6237846;22;20845;-71
2023/01/01 10:09:26;;;;;;;14.73;3.27;;;;;;;;;;6241922;23;20366;-71
2023/01/01 10:11:55;;;;;;;12.97;3.50;;;;;;;;;;6239771;22;20151;-72
2023/01/01 10:14:23;;;;;;;18.10;5.60;;;;;;;;;;6241851;22;20366;-72
2023/01/01 10:16:51;;;;;;;24.57;4.50;;;;;;;;;;6238557;22;20392;-72
2023/01/01 10:19:37;;;;;;;16.57;3.93;;;;;;;;;;6239084;22;20440;-71
2023/01/01 10:22:05;;;;;;;19.57;4.60;;;;;;;;;;6241172;22;20489;-72
2023/01/01 10:24:41;;;;;;;15.53;3.80;;;;;;;;;;6242076;22;20390;-72
2023/01/01 10:27:12;;;;;;;17.87;4.07;;;;;;;;;;6239610;22;20362;-72
2023/01/01 10:29:43;;;;;;;19.47;3.80;;;;;;;;;;6241280;22;20539;-73
2023/01/01 10:32:17;;;;;;;19.53;3.80;;;;;;;;;;6240698;22;20393;-73
2023/01/01 10:34:42;;;;;;;16.57;3.87;;;;;;;;;;6240653;22;20394;-72
2023/01/01 10:37:08;;;;;;;14.93;3.57;;;;;;;;;;6241106;22;20366;-72
2023/01/01 10:39:34;;;;;;;16.50;4.60;;;;;;;;;;6239854;23;20593;-72
2023/01/01 10:42:01;;;;;;;22.53;3.90;;;;;;;;;;6241814;22;20178;-72
2023/01/01 10:44:30;;;;;;;14.97;3.60;;;;;;;;;;6241378;22;20393;-72
2023/01/01 10:46:58;;;;;;;13.53;3.57;;;;;;;;;;6240665;22;20824;-72
2023/01/01 10:49:23;;;;;;;16.60;4.20;;;;;;;;;;6240538;22;20461;-71
2023/01/01 10:51:49;;;;;;;20.43;3.67;;;;;;;;;;6240267;22;20397;-72
2023/01/01 10:54:30;;;;;;;18.97;3.80;;;;;;;;;;6241055;22;20158;-72
2023/01/01 10:56:55;;;;;;;21.20;3.77;;;;;;;;;;6239987;22;20354;-72
2023/01/01 10:59:35;;;;;;;22.30;4.10;;;;;;;;;;6239652;22;20386;-72
2023/01/01 11:02:19;;;;;;;15.30;4.00;;;;;;;;;;6237897;22;20289;-73
2023/01/01 11:04:45;;;;;;;12.83;3.30;;;;;;;;;;6235633;23;20419;-71
2023/01/01 11:07:17;;;;;;;17.07;3.67;;;;;;;;;;6232698;22;20776;-72
2023/01/01 11:09:46;;;;;;;23.30;3.90;;;;;;;;;;6238846;22;20166;-73
2023/01/01 11:12:16;;;;;;;19.47;3.97;;;;;;;;;;6237415;22;20439;-72
2023/01/01 11:14:42;;;;;;;18.13;3.20;;;;;;;;;;6238190;22;20374;-72
2023/01/01 11:17:08;;;;;;;15.17;4.00;;;;;;;;;;6239871;22;20374;-72
2023/01/01 11:19:35;;;;;;;12.73;3.27;;;;;;;;;;6238481;23;21058;-72
2023/01/01 11:22:00;;;;;;;12.83;3.30;;;;;;;;;;6241748;22;20171;-72
2023/01/01 11:24:27;;;;;;;18.63;4.80;;;;;;;;;;6240508;22;20400;-71
2023/01/01 11:26:53;;;;;;;19.90;4.13;;;;;;;;;;6240832;22;20139;-72
2023/01/01 11:29:21;;;;;;;14.50;4.03;;;;;;;;;;6238966;22;20722;-73
2023/01/01 11:31:47;;;;;;;22.30;4.13;;;;;;;;;;6238747;22;20370;-72
2023/01/01 11:34:26;;;;;;;13.80;3.10;;;;;;;;;;6236613;22;20707;-72
2023/01/01 11:36:52;;;;;;;16.90;3.57;;;;;;;;;;6236869;22;20173;-72
2023/01/01 11:39:27;;;;;;;16.50;3.20;;;;;;;;;;6238098;22;20389;-72
2023/01/01 11:41:56;;;;;;;13.47;2.87;;;;;;;;;;6229680;23;20221;-72
2023/01/01 11:44:31;;;;;;;12.50;2.73;;;;;;;;;;6237047;22;20372;-72
2023/01/01 11:46:56;;;;;;;13.10;3.10;;;;;;;;;;6238255;22;20357;-73
2023/01/01 11:49:24;;;;;;;13.10;3.03;;;;;;;;;;6237851;22;20382;-72
2023/01/01 11:51:49;;;;;;;14.00;2.77;;;;;;;;;;6237986;23;20147;-72
2023/01/01 11:54:23;;;;;;;12.30;2.80;;;;;;;;;;6239078;22;20423;-72
2023/01/01 11:56:51;;;;;;;13.80;2.90;;;;;;;;;;6238349;22;20151;-72
2023/01/01 11:59:20;;;;;;;14.40;2.73;;;;;;;;;;6240914;22;20386;-73
2023/01/01 12:01:48;;;;;;;13.53;2.83;;;;;;;;;;6239218;23;20876;-71
2023/01/01 12:04:23;;;;;;;14.40;3.40;;;;;;;;;;6241145;22;20409;-73
2023/01/01 12:06:48;;;;;;;18.93;3.20;;;;;;;;;;6241197;22;20416;-71
2023/01/01 12:09:21;;;;;;;16.90;3.53;;;;;;;;;;6239304;22;21171;-73
2023/01/01 12:12:01;;;;;;;11.93;3.17;;;;;;;;;;6239221;23;20155;-72
2023/01/01 12:14:31;;;;;;;13.23;2.80;;;;;;;;;;6240598;23;20373;-72
2023/01/01 12:17:01;;;;;;;13.90;3.27;;;;;;;;;;6239156;23;20717;-72
2023/01/01 12:19:30;;;;;;;19.07;3.23;;;;;;;;;;6239215;23;20714;-72
2023/01/01 12:21:57;;;;;;;14.77;2.67;;;;;;;;;;6240852;22;20402;-72
2023/01/01 12:24:24;;;;;;;12.17;2.80;;;;;;;;;;6240735;22;20365;-72
2023/01/01 12:27:01;;;;;;;10.60;3.00;;;;;;;;;;6239513;23;20380;-72
2023/01/01 12:29:35;;;;;;;12.67;2.73;;;;;;;;;;6241143;22;20417;-72
2023/01/01 12:32:03;;;;;;;14.90;3.37;;;;;;;;;;6240445;23;20378;-72
2023/01/01 12:34:35;;;;;;;20.57;5.07;;;;;;;;;;6240715;23;20362;-73
2023/01/01 12:37:06;;;;;;;20.60;3.10;;;;;;;;;;6239571;22;20374;-72
2023/01/01 12:39:50;;;;;;;17.83;3.07;;;;;;;;;;6237632;23;20773;-72
2023/01/01 12:42:17;;;;;;;12.40;3.73;;;;;;;;;;6239702;22;20653;-72
2023/01/01 12:44:54;;;;;;;11.73;2.90;;;;;;;;;;6236731;23;20457;-72
2023/01/01 12:47:38;;;;;;;14.20;3.33;;;;;;;;;;6239415;22;20465;-72
2023/01/01 12:50:15;;;;;;;15.80;3.07;;;;;;;;;;6238812;23;20434;-72
2023/01/01 12:52:56;;;;;;;7.23;2.27;;;;;;;;;;6240182;23;20385;-72
2023/01/01 12:55:21;;;;;;;12.17;3.40;;;;;;;;;;6243601;23;20461;-72
2023/01/01 12:57:58;;;;;;;16.77;3.20;;;;;;;;;;6240375;22;20421;-72
2023/01/01 13:00:24;;;;;;;13.80;3.20;;;;;;;;;;6234349;23;20505;-73
2023/01/01 13:02:54;;;;;;;15.50;3.63;;;;;;;;;;6235701;22;20369;-73
2023/01/01 13:05:24;;;;;;;18.03;3.20;;;;;;;;;;6241324;22;20872;-73
2023/01/01 13:07:52;;;;;;;16.30;3.00;;;;;;;;;;6233799;22;20474;-72
2023/01/01 13:10:30;;;;;;;8.60;2.37;;;;;;;;;;6240050;23;20381;-72
2023/01/01 13:12:56;;;;;;;12.70;3.20;;;;;;;;;;6243003;22;20373;-72
2023/01/01 13:15:33;;;;;;;17.60;3.80;;;;;;;;;;6242954;22;20447;-72
2023/01/01 13:17:59;;;;;;;13.30;3.10;;;;;;;;;;6240515;22;20178;-72
2023/01/01 13:20:25;;;;;;;10.10;3.00;;;;;;;;;;6236213;23;20418;-72
2023/01/01 13:22:50;;;;;;;16.93;3.70;;;;;;;;;;6235062;23;20178;-71
2023/01/01 13:25:16;;;;;;;12.57;3.40;;;;;;;;;;6240943;23;20733;-72
2023/01/01 13:27:56;;;;;;;12.93;3.27;;;;;;;;;;6239195;22;20163;-72
2023/01/01 13:30:44;;;;;;;10.03;2.63;;;;;;;;;;6230675;23;20437;-71
2023/01/01 13:33:15;;;;;;;17.50;3.10;;;;;;;;;;6241514;22;20346;-71
2023/01/01 13:35:41;;;;;;;20.07;2.87;;;;;;;;;;6242046;22;20384;-71
2023/01/01 13:38:41;;;;;;;12.37;3.30;;;;;;;;;;6239086;22;20418;-71
2023/01/01 13:41:35;;;;;;;11.67;3.43;;;;;;;;;;6241092;23;20171;-71
2023/01/01 13:44:02;;;;;;;10.20;2.80;;;;;;;;;;6237366;23;20374;-71
2023/01/01 13:46:27;;;;;;;12.50;3.10;;;;;;;;;;6240915;22;20367;-71
2023/01/01 13:49:12;;;;;;;13.50;2.80;;;;;;;;;;6237874;22;20437;-70
2023/01/01 13:51:37;;;;;;;22.00;3.10;;;;;;;;;;6233212;22;20200;-70
2023/01/01 13:54:14;;;;;;;13.00;3.10;;;;;;;;;;6234238;23;20405;-70
2023/01/01 13:56:48;;;;;;;14.90;3.13;;;;;;;;;;6237863;23;20502;-70
2023/01/01 13:59:38;;;;;;;15.07;2.90;;;;;;;;;;6240799;22;20386;-72
2023/01/01 14:02:15;;;;;;;17.90;2.90;;;;;;;;;;6240174;23;20467;-70
2023/01/01 14:04:40;;;;;;;8.73;2.30;;;;;;;;;;6241016;22;20425;-70
2023/01/01 14:07:15;;;;;;;9.90;2.73;;;;;;;;;;6241257;22;20448;-72
2023/01/01 14:09:40;;;;;;;13.47;3.13;;;;;;;;;;6239674;22;20206;-72
2023/01/01 14:12:23;;;;;;;15.70;4.00;;;;;;;;;;6241642;23;20684;-72
2023/01/01 14:14:49;;;;;;;12.07;3.10;;;;;;;;;;6238668;22;20194;-76
2023/01/01 14:17:14;;;;;;;12.03;2.97;;;;;;;;;;6242865;23;20712;-77
2023/01/01 14:19:40;;;;;;;13.37;3.00;;;;;;;;;;6241909;22;20190;-74
2023/01/01 14:22:10;;;;;;;11.40;2.50;;;;;;;;;;6236987;23;20187;-75
2023/01/01 14:24:46;;;;;;;14.77;3.70;;;;;;;;;;6242640;23;20963;-78
2023/01/01 14:27:19;;;;;;;10.70;2.53;;;;;;;;;;6240747;23;20366;-77
2023/01/01 14:29:46;;;;;;;19.47;3.37;;;;;;;;;;6239462;22;20429;-76
2023/01/01 14:32:19;;;;;;;13.80;2.90;;;;;;;;;;6237721;22;20395;-76
2023/01/01 14:34:57;;;;;;;13.30;3.00;;;;;;;;;;6242069;23;20441;-76
2023/01/01 14:37:23;;;;;;;13.90;3.97;;;;;;;;;;6245204;22;20346;-77
2023/01/01 14:40:09;;;;;;;15.70;3.80;;;;;;;;;;6239836;22;20386;-76
2023/01/01 14:42:35;;;;;;;17.63;5.00;;;;;;;;;;6222184;22;20394;-76